sensor_id;sensor_type;location;lat;lon;timestamp;pressure;altitude;pressure_sealevel;temperature;humidity
36248;BME280;22287;50.824;5.644;2023-04-10T00:02:26;101335.25;;;11.48;51.89
36248;BME280;22287;50.824;5.644;2023-04-10T00:04:53;101340.75;;;11.25;52.30
36248;BME280;22287;50.824;5.644;2023-04-10T00:07:20;101332.19;;;10.96;52.54
36248;BME280;22287;50.824;5.644;2023-04-10T00:09:47;101336.59;;;10.97;52.67
36248;BME280;22287;50.824;5.644;2023-04-10T00:12:14;101330.22;;;10.98;52.85
36248;BME280;22287;50.824;5.644;2023-04-10T00:14:41;101320.59;;;11.40;52.09
36248;BME280;22287;50.824;5.644;2023-04-10T00:17:08;101314.31;;;11.28;52.71
36248;BME280;22287;50.824;5.644;2023-04-10T00:19:35;101308.75;;;11.18;52.85
36248;BME280;22287;50.824;5.644;2023-04-10T00:22:02;101298.38;;;10.90;53.53
36248;BME280;22287;50.824;5.644;2023-04-10T00:24:29;101295.63;;;10.79;52.93
36248;BME280;22287;50.824;5.644;2023-04-10T00:26:56;101285.44;;;10.94;52.36
36248;BME280;22287;50.824;5.644;2023-04-10T00:29:23;101277.63;;;11.13;52.21
36248;BME280;22287;50.824;5.644;2023-04-10T00:31:50;101278.63;;;11.12;51.61
36248;BME280;22287;50.824;5.644;2023-04-10T00:34:16;101270.53;;;11.23;51.54
36248;BME280;22287;50.824;5.644;2023-04-10T00:36:45;101272.63;;;11.42;50.47
36248;BME280;22287;50.824;5.644;2023-04-10T00:39:12;101268.56;;;11.58;50.51
36248;BME280;22287;50.824;5.644;2023-04-10T00:41:40;101267.34;;;11.40;50.77
36248;BME280;22287;50.824;5.644;2023-04-10T00:44:07;101256.38;;;11.31;51.06
36248;BME280;22287;50.824;5.644;2023-04-10T00:46:36;101256.38;;;11.19;51.71
36248;BME280;22287;50.824;5.644;2023-04-10T00:49:03;101251.59;;;11.23;51.34
36248;BME280;22287;50.824;5.644;2023-04-10T00:51:32;101250.31;;;11.05;51.55
36248;BME280;22287;50.824;5.644;2023-04-10T00:53:59;101248.41;;;11.29;50.85
36248;BME280;22287;50.824;5.644;2023-04-10T00:56:29;101245.44;;;11.10;51.33
36248;BME280;22287;50.824;5.644;2023-04-10T00:58:59;101244.66;;;11.08;51.45
36248;BME280;22287;50.824;5.644;2023-04-10T01:01:29;101234.34;;;11.24;51.17
36248;BME280;22287;50.824;5.644;2023-04-10T01:03:57;101238.38;;;11.07;51.63
36248;BME280;22287;50.824;5.644;2023-04-10T01:06:52;101227.44;;;10.87;52.17
36248;BME280;22287;50.824;5.644;2023-04-10T01:12:05;101222.72;;;10.78;53.03
36248;BME280;22287;50.824;5.644;2023-04-10T01:20:24;101219.22;;;10.53;53.29
36248;BME280;22287;50.824;5.644;2023-04-10T01:25:50;101207.69;;;10.51;53.24
36248;BME280;22287;50.824;5.644;2023-04-10T01:30:52;101210.97;;;10.90;52.07
36248;BME280;22287;50.824;5.644;2023-04-10T01:33:25;101218.63;;;10.61;52.67
36248;BME280;22287;50.824;5.644;2023-04-10T01:35:57;101216.34;;;10.44;53.38
36248;BME280;22287;50.824;5.644;2023-04-10T01:38:27;101209.78;;;10.59;53.16
36248;BME280;22287;50.824;5.644;2023-04-10T01:40:56;101213.16;;;10.74;52.74
36248;BME280;22287;50.824;5.644;2023-04-10T01:43:29;101224.97;;;10.14;54.19
36248;BME280;22287;50.824;5.644;2023-04-10T01:45:58;101220.97;;;10.31;53.85
36248;BME280;22287;50.824;5.644;2023-04-10T01:48:26;101225.00;;;10.25;53.89
36248;BME280;22287;50.824;5.644;2023-04-10T01:50:56;101219.81;;;10.46;53.92
36248;BME280;22287;50.824;5.644;2023-04-10T01:53:24;101217.47;;;10.76;53.75
36248;BME280;22287;50.824;5.644;2023-04-10T01:55:51;101213.31;;;10.48;54.41
36248;BME280;22287;50.824;5.644;2023-04-10T01:58:19;101216.75;;;10.50;54.40
36248;BME280;22287;50.824;5.644;2023-04-10T02:00:46;101207.19;;;9.99;56.03
36248;BME280;22287;50.824;5.644;2023-04-10T02:03:14;101207.84;;;10.26;55.14
36248;BME280;22287;50.824;5.644;2023-04-10T02:06:13;101205.53;;;10.44;54.51
36248;BME280;22287;50.824;5.644;2023-04-10T02:08:49;101200.44;;;10.17;54.33
36248;BME280;22287;50.824;5.644;2023-04-10T02:11:33;101197.94;;;10.14;54.61
36248;BME280;22287;50.824;5.644;2023-04-10T02:14:04;101192.63;;;10.36;53.78
36248;BME280;22287;50.824;5.644;2023-04-10T02:16:34;101185.50;;;10.24;53.95
36248;BME280;22287;50.824;5.644;2023-04-10T02:19:04;101188.28;;;10.46;52.68
36248;BME280;22287;50.824;5.644;2023-04-10T02:21:32;101182.97;;;10.45;52.86
36248;BME280;22287;50.824;5.644;2023-04-10T02:23:59;101184.72;;;10.57;51.89
36248;BME280;22287;50.824;5.644;2023-04-10T02:26:27;101176.63;;;10.57;51.85
36248;BME280;22287;50.824;5.644;2023-04-10T02:28:53;101175.22;;;10.40;52.15
36248;BME280;22287;50.824;5.644;2023-04-10T02:31:20;101173.28;;;10.53;51.99
36248;BME280;22287;50.824;5.644;2023-04-10T02:33:47;101169.84;;;10.51;51.53
36248;BME280;22287;50.824;5.644;2023-04-10T02:36:15;101161.31;;;10.34;52.59
36248;BME280;22287;50.824;5.644;2023-04-10T02:38:42;101163.38;;;10.76;51.66
36248;BME280;22287;50.824;5.644;2023-04-10T02:41:10;101160.06;;;10.84;50.94
36248;BME280;22287;50.824;5.644;2023-04-10T02:43:37;101146.22;;;10.31;52.59
36248;BME280;22287;50.824;5.644;2023-04-10T02:46:04;101149.78;;;10.32;52.90
36248;BME280;22287;50.824;5.644;2023-04-10T02:48:36;101143.31;;;10.45;52.26
36248;BME280;22287;50.824;5.644;2023-04-10T02:51:03;101145.19;;;10.21;53.27
36248;BME280;22287;50.824;5.644;2023-04-10T02:53:31;101132.41;;;10.80;51.54
36248;BME280;22287;50.824;5.644;2023-04-10T02:55:59;101138.13;;;10.42;52.56
36248;BME280;22287;50.824;5.644;2023-04-10T02:58:28;101136.50;;;10.29;52.42
36248;BME280;22287;50.824;5.644;2023-04-10T03:00:59;101138.59;;;10.36;52.84
36248;BME280;22287;50.824;5.644;2023-04-10T03:03:43;101124.19;;;10.71;51.51
36248;BME280;22287;50.824;5.644;2023-04-10T03:06:11;101132.97;;;10.39;52.74
36248;BME280;22287;50.824;5.644;2023-04-10T03:08:40;101130.50;;;10.36;52.79
36248;BME280;22287;50.824;5.644;2023-04-10T03:11:07;101127.59;;;10.50;52.49
36248;BME280;22287;50.824;5.644;2023-04-10T03:13:35;101129.41;;;10.50;52.35
36248;BME280;22287;50.824;5.644;2023-04-10T03:16:02;101131.81;;;10.77;52.10
36248;BME280;22287;50.824;5.644;2023-04-10T03:18:30;101128.59;;;10.83;51.32
36248;BME280;22287;50.824;5.644;2023-04-10T03:20:57;101131.81;;;10.77;51.77
36248;BME280;22287;50.824;5.644;2023-04-10T03:23:24;101120.84;;;10.67;52.12
36248;BME280;22287;50.824;5.644;2023-04-10T03:25:51;101130.25;;;10.39;52.27
36248;BME280;22287;50.824;5.644;2023-04-10T03:28:25;101129.66;;;10.58;52.20
36248;BME280;22287;50.824;5.644;2023-04-10T03:30:53;101124.09;;;10.26;52.64
36248;BME280;22287;50.824;5.644;2023-04-10T03:33:20;101121.91;;;10.31;52.64
36248;BME280;22287;50.824;5.644;2023-04-10T03:35:47;101113.84;;;10.65;51.67
36248;BME280;22287;50.824;5.644;2023-04-10T03:38:14;101117.88;;;10.48;52.07
36248;BME280;22287;50.824;5.644;2023-04-10T03:40:41;101117.19;;;11.01;50.60
36248;BME280;22287;50.824;5.644;2023-04-10T03:43:09;101119.63;;;10.71;52.17
36248;BME280;22287;50.824;5.644;2023-04-10T03:45:37;101123.66;;;10.43;52.59
36248;BME280;22287;50.824;5.644;2023-04-10T03:48:04;101122.53;;;10.11;53.32
36248;BME280;22287;50.824;5.644;2023-04-10T03:50:39;101117.31;;;10.21;52.96
36248;BME280;22287;50.824;5.644;2023-04-10T03:53:06;101113.59;;;9.87;53.72
36248;BME280;22287;50.824;5.644;2023-04-10T03:55:33;101107.50;;;10.20;52.88
36248;BME280;22287;50.824;5.644;2023-04-10T03:58:00;101100.81;;;10.58;51.85
36248;BME280;22287;50.824;5.644;2023-04-10T04:00:28;101098.25;;;10.79;51.26
36248;BME280;22287;50.824;5.644;2023-04-10T04:03:07;101094.44;;;11.04;50.91
36248;BME280;22287;50.824;5.644;2023-04-10T04:05:54;101095.16;;;10.84;50.69
36248;BME280;22287;50.824;5.644;2023-04-10T04:08:50;101092.09;;;10.88;51.12
36248;BME280;22287;50.824;5.644;2023-04-10T04:11:27;101085.31;;;10.49;51.84
36248;BME280;22287;50.824;5.644;2023-04-10T04:14:00;101082.97;;;10.34;52.60
36248;BME280;22287;50.824;5.644;2023-04-10T04:16:36;101087.53;;;10.55;51.94
36248;BME280;22287;50.824;5.644;2023-04-10T04:19:28;101082.25;;;10.43;52.01
36248;BME280;22287;50.824;5.644;2023-04-10T04:22:25;101095.03;;;10.52;51.95
36248;BME280;22287;50.824;5.644;2023-04-10T04:25:28;101092.47;;;10.61;51.58
36248;BME280;22287;50.824;5.644;2023-04-10T04:28:03;101091.34;;;10.53;52.24
36248;BME280;22287;50.824;5.644;2023-04-10T04:30:37;101084.59;;;10.58;51.96
36248;BME280;22287;50.824;5.644;2023-04-10T04:33:09;101080.28;;;10.56;51.71
36248;BME280;22287;50.824;5.644;2023-04-10T04:35:55;101083.69;;;10.36;51.56
36248;BME280;22287;50.824;5.644;2023-04-10T04:38:53;101082.88;;;10.46;52.01
36248;BME280;22287;50.824;5.644;2023-04-10T04:41:28;101080.78;;;10.61;51.35
36248;BME280;22287;50.824;5.644;2023-04-10T04:44:10;101071.94;;;10.48;51.79
36248;BME280;22287;50.824;5.644;2023-04-10T04:47:08;101076.13;;;10.41;51.86
36248;BME280;22287;50.824;5.644;2023-04-10T04:49:49;101072.66;;;10.39;51.88
36248;BME280;22287;50.824;5.644;2023-04-10T04:52:25;101077.91;;;9.94;53.18
36248;BME280;22287;50.824;5.644;2023-04-10T04:55:38;101073.28;;;9.96;52.80
36248;BME280;22287;50.824;5.644;2023-04-10T04:58:37;101073.19;;;9.51;53.89
36248;BME280;22287;50.824;5.644;2023-04-10T05:01:27;101073.25;;;9.38;54.53
36248;BME280;22287;50.824;5.644;2023-04-10T05:04:09;101073.56;;;9.10;55.31
36248;BME280;22287;50.824;5.644;2023-04-10T05:07:15;101076.78;;;9.15;55.87
36248;BME280;22287;50.824;5.644;2023-04-10T05:10:31;101070.84;;;8.86;56.34
36248;BME280;22287;50.824;5.644;2023-04-10T05:13:08;101073.34;;;9.13;56.05
36248;BME280;22287;50.824;5.644;2023-04-10T05:16:00;101064.31;;;9.14;56.29
36248;BME280;22287;50.824;5.644;2023-04-10T05:18:45;101058.28;;;9.10;56.20
36248;BME280;22287;50.824;5.644;2023-04-10T05:21:37;101051.84;;;9.24;55.25
36248;BME280;22287;50.824;5.644;2023-04-10T05:24:19;101053.00;;;9.32;55.34
36248;BME280;22287;50.824;5.644;2023-04-10T05:26:59;101050.75;;;9.26;55.39
36248;BME280;22287;50.824;5.644;2023-04-10T05:29:39;101052.66;;;9.13;55.41
36248;BME280;22287;50.824;5.644;2023-04-10T05:32:20;101047.03;;;9.64;54.60
36248;BME280;22287;50.824;5.644;2023-04-10T05:35:06;101047.72;;;9.55;54.76
36248;BME280;22287;50.824;5.644;2023-04-10T05:37:43;101047.31;;;9.48;54.58
36248;BME280;22287;50.824;5.644;2023-04-10T05:40:44;101042.03;;;9.47;54.73
36248;BME280;22287;50.824;5.644;2023-04-10T05:43:28;101038.06;;;9.63;54.39
36248;BME280;22287;50.824;5.644;2023-04-10T05:46:15;101034.25;;;10.00;53.56
36248;BME280;22287;50.824;5.644;2023-04-10T05:49:11;101037.34;;;10.07;53.44
36248;BME280;22287;50.824;5.644;2023-04-10T05:52:21;101038.88;;;9.87;53.94
36248;BME280;22287;50.824;5.644;2023-04-10T05:54:48;101040.34;;;10.15;53.12
36248;BME280;22287;50.824;5.644;2023-04-10T05:57:45;101041.34;;;10.36;52.62
36248;BME280;22287;50.824;5.644;2023-04-10T06:00:42;101045.75;;;9.91;53.80
36248;BME280;22287;50.824;5.644;2023-04-10T06:03:41;101053.59;;;10.18;53.74
36248;BME280;22287;50.824;5.644;2023-04-10T06:06:22;101051.25;;;10.14;53.27
36248;BME280;22287;50.824;5.644;2023-04-10T06:09:05;101051.19;;;10.02;53.53
36248;BME280;22287;50.824;5.644;2023-04-10T06:11:46;101053.47;;;10.31;53.14
36248;BME280;22287;50.824;5.644;2023-04-10T06:14:27;101048.81;;;10.44;53.57
36248;BME280;22287;50.824;5.644;2023-04-10T06:16:55;101059.38;;;10.25;53.62
36248;BME280;22287;50.824;5.644;2023-04-10T06:19:22;101053.75;;;10.61;53.68
36248;BME280;22287;50.824;5.644;2023-04-10T06:21:49;101056.59;;;10.59;53.58
36248;BME280;22287;50.824;5.644;2023-04-10T06:24:18;101048.72;;;10.56;53.36
36248;BME280;22287;50.824;5.644;2023-04-10T06:26:45;101052.66;;;10.75;53.03
36248;BME280;22287;50.824;5.644;2023-04-10T06:29:12;101046.97;;;10.33;54.21
36248;BME280;22287;50.824;5.644;2023-04-10T06:31:39;101050.69;;;10.32;54.07
36248;BME280;22287;50.824;5.644;2023-04-10T06:34:06;101049.94;;;10.41;54.27
36248;BME280;22287;50.824;5.644;2023-04-10T06:36:35;101050.06;;;10.40;54.71
36248;BME280;22287;50.824;5.644;2023-04-10T06:39:04;101044.78;;;10.38;55.20
36248;BME280;22287;50.824;5.644;2023-04-10T06:41:32;101042.94;;;10.50;55.95
36248;BME280;22287;50.824;5.644;2023-04-10T06:44:25;101047.25;;;10.75;55.98
36248;BME280;22287;50.824;5.644;2023-04-10T06:46:52;101037.75;;;10.91;55.56
36248;BME280;22287;50.824;5.644;2023-04-10T06:49:19;101045.69;;;11.37;54.50
36248;BME280;22287;50.824;5.644;2023-04-10T06:51:46;101036.75;;;11.46;54.85
36248;BME280;22287;50.824;5.644;2023-04-10T06:54:14;101030.31;;;11.69;53.74
36248;BME280;22287;50.824;5.644;2023-04-10T06:56:41;101024.34;;;11.01;55.23
36248;BME280;22287;50.824;5.644;2023-04-10T06:59:08;101024.09;;;11.15;55.06
36248;BME280;22287;50.824;5.644;2023-04-10T07:01:34;101025.81;;;11.48;53.99
36248;BME280;22287;50.824;5.644;2023-04-10T07:04:02;101019.09;;;11.63;53.46
36248;BME280;22287;50.824;5.644;2023-04-10T07:06:29;101023.53;;;11.96;52.98
36248;BME280;22287;50.824;5.644;2023-04-10T07:08:56;101016.66;;;11.92;52.90
36248;BME280;22287;50.824;5.644;2023-04-10T07:11:23;101013.03;;;12.23;51.55
36248;BME280;22287;50.824;5.644;2023-04-10T07:13:50;101022.91;;;11.71;53.43
36248;BME280;22287;50.824;5.644;2023-04-10T07:16:19;101004.38;;;12.08;53.29
36248;BME280;22287;50.824;5.644;2023-04-10T07:18:46;101000.63;;;12.30;52.83
36248;BME280;22287;50.824;5.644;2023-04-10T07:21:13;101004.84;;;12.44;53.69
36248;BME280;22287;50.824;5.644;2023-04-10T07:23:40;101000.19;;;12.55;52.80
36248;BME280;22287;50.824;5.644;2023-04-10T07:26:06;100999.13;;;12.37;54.00
36248;BME280;22287;50.824;5.644;2023-04-10T07:28:33;100987.50;;;12.56;51.99
36248;BME280;22287;50.824;5.644;2023-04-10T07:31:00;100998.63;;;12.62;52.13
36248;BME280;22287;50.824;5.644;2023-04-10T07:33:27;100995.03;;;12.22;53.39
36248;BME280;22287;50.824;5.644;2023-04-10T07:35:54;100990.09;;;12.06;53.45
36248;BME280;22287;50.824;5.644;2023-04-10T07:38:21;100985.22;;;12.61;52.71
36248;BME280;22287;50.824;5.644;2023-04-10T07:40:55;100988.47;;;12.94;51.34
36248;BME280;22287;50.824;5.644;2023-04-10T07:43:22;100978.66;;;12.63;51.70
36248;BME280;22287;50.824;5.644;2023-04-10T07:45:49;100974.59;;;12.78;52.40
36248;BME280;22287;50.824;5.644;2023-04-10T07:48:16;100969.16;;;12.78;52.41
36248;BME280;22287;50.824;5.644;2023-04-10T07:50:43;100975.59;;;12.87;52.19
36248;BME280;22287;50.824;5.644;2023-04-10T07:53:10;100976.00;;;12.82;52.76
36248;BME280;22287;50.824;5.644;2023-04-10T07:55:38;100963.56;;;12.70;53.05
36248;BME280;22287;50.824;5.644;2023-04-10T07:58:05;100967.88;;;12.73;52.96
36248;BME280;22287;50.824;5.644;2023-04-10T08:00:32;100962.84;;;13.08;52.15
36248;BME280;22287;50.824;5.644;2023-04-10T08:02:59;100952.66;;;13.01;52.39
36248;BME280;22287;50.824;5.644;2023-04-10T08:05:27;100941.38;;;13.05;51.71
36248;BME280;22287;50.824;5.644;2023-04-10T08:07:54;100933.69;;;13.10;51.46
36248;BME280;22287;50.824;5.644;2023-04-10T08:10:20;100935.00;;;12.66;51.49
36248;BME280;22287;50.824;5.644;2023-04-10T08:12:47;100932.63;;;12.82;51.28
36248;BME280;22287;50.824;5.644;2023-04-10T08:15:16;100930.84;;;13.12;50.59
36248;BME280;22287;50.824;5.644;2023-04-10T08:17:43;100930.84;;;13.21;51.03
36248;BME280;22287;50.824;5.644;2023-04-10T08:20:10;100926.53;;;13.28;50.81
36248;BME280;22287;50.824;5.644;2023-04-10T08:22:37;100918.84;;;13.33;49.80
36248;BME280;22287;50.824;5.644;2023-04-10T08:25:04;100921.28;;;13.27;50.24
36248;BME280;22287;50.824;5.644;2023-04-10T08:27:31;100917.28;;;13.31;50.61
36248;BME280;22287;50.824;5.644;2023-04-10T08:29:58;100913.66;;;13.59;49.75
36248;BME280;22287;50.824;5.644;2023-04-10T08:32:25;100917.97;;;13.52;50.17
36248;BME280;22287;50.824;5.644;2023-04-10T08:34:52;100919.97;;;13.60;49.12
36248;BME280;22287;50.824;5.644;2023-04-10T08:37:19;100918.13;;;13.70;49.41
36248;BME280;22287;50.824;5.644;2023-04-10T08:39:47;100924.44;;;13.97;48.82
36248;BME280;22287;50.824;5.644;2023-04-10T08:42:14;100924.53;;;14.25;48.34
36248;BME280;22287;50.824;5.644;2023-04-10T08:44:41;100925.47;;;13.96;48.78
36248;BME280;22287;50.824;5.644;2023-04-10T08:47:08;100922.81;;;14.24;48.41
36248;BME280;22287;50.824;5.644;2023-04-10T08:52:14;100926.63;;;14.40;48.88
36248;BME280;22287;50.824;5.644;2023-04-10T08:54:48;100927.19;;;14.44;49.17
36248;BME280;22287;50.824;5.644;2023-04-10T08:57:16;100922.34;;;14.38;48.44
36248;BME280;22287;50.824;5.644;2023-04-10T08:59:47;100921.50;;;14.64;48.58
36248;BME280;22287;50.824;5.644;2023-04-10T09:02:14;100926.78;;;14.66;48.62
36248;BME280;22287;50.824;5.644;2023-04-10T09:04:49;100922.16;;;14.76;48.73
36248;BME280;22287;50.824;5.644;2023-04-10T09:07:17;100919.91;;;14.89;48.34
36248;BME280;22287;50.824;5.644;2023-04-10T09:09:44;100929.34;;;14.31;49.57
36248;BME280;22287;50.824;5.644;2023-04-10T09:12:13;100908.84;;;14.46;48.51
36248;BME280;22287;50.824;5.644;2023-04-10T09:14:41;100915.28;;;14.72;48.28
36248;BME280;22287;50.824;5.644;2023-04-10T09:17:16;100909.81;;;14.54;48.94
36248;BME280;22287;50.824;5.644;2023-04-10T09:19:45;100907.50;;;14.59;48.73
36248;BME280;22287;50.824;5.644;2023-04-10T09:22:13;100910.34;;;14.85;49.04
36248;BME280;22287;50.824;5.644;2023-04-10T09:24:42;100903.75;;;14.88;49.05
36248;BME280;22287;50.824;5.644;2023-04-10T09:27:10;100900.25;;;14.95;49.42
36248;BME280;22287;50.824;5.644;2023-04-10T09:29:46;100894.25;;;14.92;49.47
36248;BME280;22287;50.824;5.644;2023-04-10T09:32:55;100892.38;;;14.92;48.02
36248;BME280;22287;50.824;5.644;2023-04-10T09:35:22;100899.03;;;15.07;48.19
36248;BME280;22287;50.824;5.644;2023-04-10T09:37:49;100892.09;;;15.13;48.13
36248;BME280;22287;50.824;5.644;2023-04-10T09:40:23;100890.13;;;15.05;48.38
36248;BME280;22287;50.824;5.644;2023-04-10T09:42:51;100880.91;;;15.16;48.61
36248;BME280;22287;50.824;5.644;2023-04-10T09:45:19;100880.19;;;15.32;49.24
36248;BME280;22287;50.824;5.644;2023-04-10T09:48:06;100861.72;;;15.43;49.33
36248;BME280;22287;50.824;5.644;2023-04-10T09:50:37;100863.41;;;15.18;49.65
36248;BME280;22287;50.824;5.644;2023-04-10T09:53:07;100857.41;;;15.33;48.08
36248;BME280;22287;50.824;5.644;2023-04-10T09:55:35;100845.88;;;15.21;48.17
36248;BME280;22287;50.824;5.644;2023-04-10T09:58:05;100837.66;;;14.95;48.32
36248;BME280;22287;50.824;5.644;2023-04-10T10:00:40;100830.72;;;14.83;48.90
36248;BME280;22287;50.824;5.644;2023-04-10T10:03:11;100825.53;;;14.90;49.39
36248;BME280;22287;50.824;5.644;2023-04-10T10:05:41;100824.81;;;15.05;49.44
36248;BME280;22287;50.824;5.644;2023-04-10T10:08:12;100817.25;;;15.17;47.85
36248;BME280;22287;50.824;5.644;2023-04-10T10:13:15;100820.00;;;15.43;48.45
36248;BME280;22287;50.824;5.644;2023-04-10T10:16:06;100821.44;;;15.29;48.38
36248;BME280;22287;50.824;5.644;2023-04-10T10:21:01;100825.16;;;15.97;46.45
36248;BME280;22287;50.824;5.644;2023-04-10T10:23:31;100818.47;;;15.66;48.36
36248;BME280;22287;50.824;5.644;2023-04-10T10:25:59;100804.38;;;15.96;47.61
36248;BME280;22287;50.824;5.644;2023-04-10T10:28:30;100814.97;;;15.73;48.17
36248;BME280;22287;50.824;5.644;2023-04-10T10:30:59;100801.50;;;15.72;48.29
36248;BME280;22287;50.824;5.644;2023-04-10T10:33:28;100801.84;;;15.77;47.33
36248;BME280;22287;50.824;5.644;2023-04-10T10:35:58;100788.78;;;15.55;47.90
36248;BME280;22287;50.824;5.644;2023-04-10T10:38:26;100790.69;;;15.88;47.92
36248;BME280;22287;50.824;5.644;2023-04-10T10:40:59;100776.38;;;16.28;46.79
36248;BME280;22287;50.824;5.644;2023-04-10T10:43:51;100775.34;;;16.21;47.14
36248;BME280;22287;50.824;5.644;2023-04-10T10:49:08;100764.03;;;16.16;47.91
36248;BME280;22287;50.824;5.644;2023-04-10T10:51:49;100758.75;;;16.06;48.02
36248;BME280;22287;50.824;5.644;2023-04-10T10:54:29;100757.88;;;16.06;47.29
36248;BME280;22287;50.824;5.644;2023-04-10T10:56:56;100760.09;;;16.10;46.85
36248;BME280;22287;50.824;5.644;2023-04-10T11:02:12;100755.78;;;16.50;47.22
36248;BME280;22287;50.824;5.644;2023-04-10T11:04:42;100756.16;;;16.55;46.52
36248;BME280;22287;50.824;5.644;2023-04-10T11:07:13;100737.34;;;16.43;46.12
36248;BME280;22287;50.824;5.644;2023-04-10T11:09:50;100736.59;;;16.83;46.71
36248;BME280;22287;50.824;5.644;2023-04-10T11:12:20;100738.78;;;16.88;47.27
36248;BME280;22287;50.824;5.644;2023-04-10T11:15:13;100726.53;;;16.76;47.73
36248;BME280;22287;50.824;5.644;2023-04-10T11:17:49;100718.84;;;17.03;47.18
36248;BME280;22287;50.824;5.644;2023-04-10T11:20:18;100716.09;;;16.87;46.62
36248;BME280;22287;50.824;5.644;2023-04-10T11:23:06;100722.78;;;17.01;46.14
36248;BME280;22287;50.824;5.644;2023-04-10T11:25:51;100723.59;;;16.93;46.83
36248;BME280;22287;50.824;5.644;2023-04-10T11:31:16;100700.81;;;17.96;42.55
36248;BME280;22287;50.824;5.644;2023-04-10T11:36:27;100699.88;;;17.73;43.60
36248;BME280;22287;50.824;5.644;2023-04-10T11:39:02;100694.94;;;17.06;45.30
36248;BME280;22287;50.824;5.644;2023-04-10T11:41:36;100697.09;;;17.26;44.15
36248;BME280;22287;50.824;5.644;2023-04-10T11:44:08;100697.84;;;16.72;47.26
36248;BME280;22287;50.824;5.644;2023-04-10T11:46:40;100693.88;;;17.31;43.12
36248;BME280;22287;50.824;5.644;2023-04-10T11:49:08;100696.38;;;17.48;43.24
36248;BME280;22287;50.824;5.644;2023-04-10T11:51:36;100695.38;;;17.41;45.55
36248;BME280;22287;50.824;5.644;2023-04-10T11:54:14;100683.72;;;17.64;44.77
36248;BME280;22287;50.824;5.644;2023-04-10T11:57:03;100681.75;;;17.33;45.61
36248;BME280;22287;50.824;5.644;2023-04-10T11:59:31;100676.72;;;17.53;44.25
36248;BME280;22287;50.824;5.644;2023-04-10T12:02:09;100666.16;;;17.50;43.63
36248;BME280;22287;50.824;5.644;2023-04-10T12:04:38;100672.47;;;17.50;43.83
36248;BME280;22287;50.824;5.644;2023-04-10T12:07:06;100672.63;;;17.49;45.76
36248;BME280;22287;50.824;5.644;2023-04-10T12:09:33;100675.19;;;17.50;44.61
36248;BME280;22287;50.824;5.644;2023-04-10T12:12:04;100666.25;;;17.73;43.05
36248;BME280;22287;50.824;5.644;2023-04-10T12:14:33;100670.34;;;17.14;45.31
36248;BME280;22287;50.824;5.644;2023-04-10T12:17:02;100665.16;;;17.82;45.61
36248;BME280;22287;50.824;5.644;2023-04-10T12:19:29;100665.72;;;18.08;44.22
36248;BME280;22287;50.824;5.644;2023-04-10T12:21:57;100656.97;;;18.12;43.96
36248;BME280;22287;50.824;5.644;2023-04-10T12:27:24;100642.88;;;18.24;44.08
36248;BME280;22287;50.824;5.644;2023-04-10T12:29:54;100643.78;;;18.16;44.31
36248;BME280;22287;50.824;5.644;2023-04-10T12:32:22;100638.13;;;18.40;42.38
36248;BME280;22287;50.824;5.644;2023-04-10T12:34:50;100624.16;;;18.35;44.03
36248;BME280;22287;50.824;5.644;2023-04-10T12:37:18;100611.72;;;18.70;43.78
36248;BME280;22287;50.824;5.644;2023-04-10T12:39:45;100609.75;;;18.64;43.44
36248;BME280;22287;50.824;5.644;2023-04-10T12:42:13;100611.78;;;18.39;43.60
36248;BME280;22287;50.824;5.644;2023-04-10T12:47:17;100603.38;;;18.49;40.31
36248;BME280;22287;50.824;5.644;2023-04-10T12:52:30;100599.09;;;18.46;42.27
36248;BME280;22287;50.824;5.644;2023-04-10T12:55:13;100595.44;;;19.06;43.24
36248;BME280;22287;50.824;5.644;2023-04-10T12:57:41;100597.59;;;19.25;43.03
36248;BME280;22287;50.824;5.644;2023-04-10T13:00:13;100604.81;;;18.97;40.59
36248;BME280;22287;50.824;5.644;2023-04-10T13:02:40;100601.22;;;18.96;41.03
36248;BME280;22287;50.824;5.644;2023-04-10T13:05:08;100590.91;;;18.98;41.82
36248;BME280;22287;50.824;5.644;2023-04-10T13:07:35;100588.75;;;18.56;41.31
36248;BME280;22287;50.824;5.644;2023-04-10T13:10:04;100587.84;;;18.41;41.09
36248;BME280;22287;50.824;5.644;2023-04-10T13:12:32;100586.44;;;18.45;42.50
36248;BME280;22287;50.824;5.644;2023-04-10T13:15:00;100581.75;;;18.31;41.21
36248;BME280;22287;50.824;5.644;2023-04-10T13:17:27;100577.34;;;18.30;42.78
36248;BME280;22287;50.824;5.644;2023-04-10T13:19:54;100572.38;;;18.34;42.13
36248;BME280;22287;50.824;5.644;2023-04-10T13:22:21;100559.41;;;18.28;43.31
36248;BME280;22287;50.824;5.644;2023-04-10T13:24:48;100553.22;;;18.11;42.26
36248;BME280;22287;50.824;5.644;2023-04-10T13:27:15;100552.88;;;18.29;41.93
36248;BME280;22287;50.824;5.644;2023-04-10T13:29:42;100543.44;;;18.16;42.81
36248;BME280;22287;50.824;5.644;2023-04-10T13:32:08;100540.09;;;17.84;43.15
36248;BME280;22287;50.824;5.644;2023-04-10T13:34:35;100534.22;;;17.95;42.80
36248;BME280;22287;50.824;5.644;2023-04-10T13:37:03;100527.94;;;17.86;42.16
36248;BME280;22287;50.824;5.644;2023-04-10T13:39:30;100528.97;;;18.08;42.73
36248;BME280;22287;50.824;5.644;2023-04-10T13:41:59;100534.88;;;17.97;42.81
36248;BME280;22287;50.824;5.644;2023-04-10T13:44:27;100530.00;;;17.84;42.59
36248;BME280;22287;50.824;5.644;2023-04-10T13:46:54;100520.59;;;17.64;43.25
36248;BME280;22287;50.824;5.644;2023-04-10T13:49:23;100517.81;;;17.95;44.07
36248;BME280;22287;50.824;5.644;2023-04-10T13:51:49;100502.66;;;17.62;43.86
36248;BME280;22287;50.824;5.644;2023-04-10T13:54:16;100490.16;;;17.36;43.52
36248;BME280;22287;50.824;5.644;2023-04-10T13:56:43;100497.81;;;17.41;44.25
36248;BME280;22287;50.824;5.644;2023-04-10T13:59:12;100492.84;;;17.44;44.67